Time;durP1;ratioP1;P1;durP2;ratioP2;P2;SDS_P1;SDS_P2;PMS_P1;PMS_P2;Temp;Humidity;BMP_temperature;BMP_pressure;BME280_temperature;BME280_humidity;BME280_pressure;Samples;Min_cycle;Max_cycle;Signal;HPM_P1;HPM_P2
2023/01/26 00:01:08;;;;;;;92.43;29.42;;;0.30;99.90;;;;;;5095208;28;20472;-45
2023/01/26 00:03:34;;;;;;;84.60;32.30;;;0.20;99.90;;;;;;5059250;28;20059;-45
2023/01/26 00:06:04;;;;;;;95.15;32.92;;;0.30;99.90;;;;;;5094432;28;20039;-47
2023/01/26 00:08:34;;;;;;;101.57;31.65;;;0.20;99.90;;;;;;5094840;28;20402;-46
2023/01/26 00:11:03;;;;;;;98.80;30.67;;;0.20;99.90;;;;;;5093181;28;20509;-45
2023/01/26 00:13:28;;;;;;;105.10;30.95;;;0.10;99.90;;;;;;5062324;28;20058;-44
2023/01/26 00:15:54;;;;;;;106.75;32.22;;;0.20;99.90;;;;;;5075267;28;20047;-47
2023/01/26 00:18:19;;;;;;;102.00;31.02;;;0.20;99.90;;;;;;5087031;28;20087;-46
2023/01/26 00:20:45;;;;;;;107.35;31.00;;;0.20;99.90;;;;;;5089011;28;20079;-45
2023/01/26 00:23:11;;;;;;;101.18;32.97;;;0.30;99.90;;;;;;5093162;28;20051;-46
2023/01/26 00:25:39;;;;;;;105.32;30.77;;;0.40;99.90;;;;;;5093792;28;20090;-47
2023/01/26 00:28:04;;;;;;;97.65;30.02;;;0.10;99.90;;;;;;5076206;28;20465;-49
2023/01/26 00:30:30;;;;;;;114.28;32.35;;;0.30;99.90;;;;;;5094515;28;20054;-46
2023/01/26 00:32:56;;;;;;;101.25;33.80;;;0.10;99.90;;;;;;5093323;28;20055;-45
2023/01/26 00:35:23;;;;;;;103.10;30.30;;;0.40;99.90;;;;;;5094508;28;20058;-44
2023/01/26 00:37:48;;;;;;;106.07;32.30;;;0.10;99.90;;;;;;5093754;28;20044;-46
2023/01/26 00:40:14;;;;;;;97.70;31.55;;;0.30;99.90;;;;;;5058988;28;20078;-46
2023/01/26 00:42:40;;;;;;;100.07;31.13;;;0.40;99.90;;;;;;5093727;28;20104;-46
2023/01/26 00:45:06;;;;;;;95.18;30.67;;;0.30;99.90;;;;;;5076127;28;20043;-46
2023/01/26 00:47:32;;;;;;;106.15;30.73;;;0.30;99.90;;;;;;5093908;28;20076;-47
2023/01/26 00:49:57;;;;;;;111.93;32.03;;;0.20;99.90;;;;;;5093638;28;20047;-46
2023/01/26 00:52:23;;;;;;;96.60;29.30;;;0.20;99.90;;;;;;5074336;28;20052;-47
2023/01/26 00:54:49;;;;;;;101.35;30.17;;;0.20;99.90;;;;;;5093672;28;20044;-46
2023/01/26 00:57:14;;;;;;;105.45;30.33;;;0.30;99.90;;;;;;5092972;28;20047;-44
2023/01/26 00:59:40;;;;;;;104.80;30.27;;;0.30;99.90;;;;;;5093592;28;20412;-46
2023/01/26 01:02:05;;;;;;;95.20;29.90;;;0.40;99.90;;;;;;5093080;28;20074;-45
2023/01/26 01:04:32;;;;;;;98.40;30.40;;;0.50;99.90;;;;;;5093743;28;20051;-47
2023/01/26 01:06:57;;;;;;;101.75;30.92;;;0.30;99.90;;;;;;5092235;28;20073;-45
2023/01/26 01:09:24;;;;;;;110.25;31.90;;;0.40;99.90;;;;;;5093567;28;20075;-45
2023/01/26 01:11:49;;;;;;;86.15;27.88;;;0.30;99.90;;;;;;5094099;28;20046;-46
2023/01/26 01:14:15;;;;;;;103.93;32.55;;;0.20;99.90;;;;;;5093886;28;20052;-44
2023/01/26 01:16:41;;;;;;;99.28;28.55;;;0.50;99.90;;;;;;5092690;28;20581;-47
2023/01/26 01:19:07;;;;;;;118.22;33.33;;;0.50;99.90;;;;;;5074729;28;20043;-46
2023/01/26 01:21:35;;;;;;;115.63;30.85;;;0.40;99.90;;;;;;5093436;28;20116;-44
2023/01/26 01:24:01;;;;;;;89.25;29.83;;;0.30;99.90;;;;;;5094052;28;20080;-45
2023/01/26 01:26:26;;;;;;;108.57;30.58;;;0.30;99.90;;;;;;5097172;28;20047;-46
2023/01/26 01:28:54;;;;;;;91.13;27.67;;;0.60;99.90;;;;;;5097496;28;20047;-48
2023/01/26 01:31:20;;;;;;;66.32;26.13;;;0.30;99.90;;;;;;5097339;28;20052;-46
2023/01/26 01:33:46;;;;;;;100.72;29.20;;;0.60;99.90;;;;;;5096406;28;20409;-47
2023/01/26 01:36:14;;;;;;;95.20;27.80;;;0.40;99.90;;;;;;5096646;28;20900;-45
2023/01/26 01:38:42;;;;;;;83.70;27.98;;;0.30;99.90;;;;;;5097465;28;20130;-47
2023/01/26 01:41:09;;;;;;;75.32;27.17;;;0.40;99.90;;;;;;5097263;28;20369;-46
2023/01/26 01:43:35;;;;;;;96.72;28.52;;;0.40;99.90;;;;;;5096924;28;20410;-45
2023/01/26 01:46:10;;;;;;;92.50;29.05;;;0.60;99.90;;;;;;5078716;28;20055;-46
2023/01/26 01:48:45;;;;;;;89.18;28.02;;;0.60;99.90;;;;;;5096364;28;20055;-48
2023/01/26 01:51:17;;;;;;;82.25;27.13;;;0.60;99.90;;;;;;5097053;28;20462;-46
2023/01/26 01:53:48;;;;;;;101.07;28.95;;;0.70;99.90;;;;;;5062079;28;20066;-47
2023/01/26 01:56:20;;;;;;;83.07;27.00;;;0.40;99.90;;;;;;5097217;28;20056;-45
2023/01/26 01:58:50;;;;;;;86.33;26.30;;;0.60;99.90;;;;;;5097437;28;20079;-46
2023/01/26 02:01:16;;;;;;;89.35;27.60;;;0.40;99.90;;;;;;5096683;28;20557;-46
2023/01/26 02:03:43;;;;;;;92.80;27.17;;;0.40;99.90;;;;;;5096253;28;20096;-44
2023/01/26 02:06:32;;;;;;;82.18;26.83;;;0.50;99.90;;;;;;5096163;28;20192;-46
2023/01/26 02:08:58;;;;;;;89.18;27.08;;;0.60;99.90;;;;;;5096408;28;20047;-45
2023/01/26 02:11:44;;;;;;;91.38;27.25;;;0.60;99.90;;;;;;5096241;28;20184;-47
2023/01/26 02:14:13;;;;;;;88.72;27.83;;;0.60;99.90;;;;;;5096242;28;20086;-47
2023/01/26 02:16:39;;;;;;;87.93;28.80;;;0.40;99.90;;;;;;5095677;28;20457;-44
2023/01/26 02:19:13;;;;;;;97.05;29.10;;;0.60;99.90;;;;;;5078214;28;20047;-48
2023/01/26 02:21:41;;;;;;;94.82;26.75;;;0.70;99.90;;;;;;5078342;28;20207;-45
2023/01/26 02:24:20;;;;;;;95.20;28.85;;;0.60;99.90;;;;;;5095503;28;20062;-47
2023/01/26 02:26:46;;;;;;;86.47;27.13;;;0.70;99.90;;;;;;5096671;28;20103;-47
2023/01/26 02:29:12;;;;;;;105.78;29.48;;;0.70;99.90;;;;;;5095780;28;20439;-45
2023/01/26 02:31:39;;;;;;;93.63;27.92;;;0.50;99.90;;;;;;5096550;28;20051;-46
2023/01/26 02:34:05;;;;;;;73.00;26.48;;;0.70;99.90;;;;;;5060836;28;20328;-46
2023/01/26 02:36:32;;;;;;;84.80;28.25;;;0.70;99.90;;;;;;5095271;28;20407;-44
2023/01/26 02:39:21;;;;;;;92.15;26.80;;;0.60;99.90;;;;;;5096590;28;20078;-46
2023/01/26 02:44:33;;;;;;;94.13;27.08;;;0.70;99.90;;;;;;5078492;28;20573;-45
2023/01/26 02:46:58;;;;;;;81.53;27.00;;;0.70;99.90;;;;;;5076935;28;20055;-45
2023/01/26 02:52:08;;;;;;;88.38;25.38;;;0.70;99.90;;;;;;5095108;28;20504;-46
2023/01/26 02:57:19;;;;;;;103.63;28.83;;;0.80;99.90;;;;;;5064564;28;20047;-45
2023/01/26 02:59:44;;;;;;;75.15;26.80;;;0.80;99.90;;;;;;5077475;28;20049;-45
2023/01/26 03:02:10;;;;;;;95.90;28.90;;;0.70;99.90;;;;;;5095606;28;20231;-46
2023/01/26 03:04:36;;;;;;;98.68;27.65;;;0.70;99.90;;;;;;5096385;28;20044;-44
2023/01/26 03:07:02;;;;;;;85.13;27.00;;;0.70;99.90;;;;;;5095724;28;20054;-46
2023/01/26 03:09:27;;;;;;;86.03;26.77;;;0.80;99.90;;;;;;5095999;28;20127;-46
2023/01/26 03:11:53;;;;;;;93.85;26.88;;;0.90;99.90;;;;;;5095096;28;20402;-45
2023/01/26 03:14:19;;;;;;;71.28;24.40;;;0.90;99.90;;;;;;5095871;28;20457;-46
2023/01/26 03:16:44;;;;;;;108.15;28.75;;;0.70;99.90;;;;;;5095508;28;20127;-45
2023/01/26 03:27:32;;;;;;;71.75;25.33;;;0.80;99.90;;;;;;5094960;28;20115;-47
2023/01/26 03:29:58;;;;;;;71.75;25.33;;;0.90;99.90;;;;;;5095376;28;20043;-47
2023/01/26 03:32:24;;;;;;;115.65;29.20;;;0.80;99.90;;;;;;5094759;28;20120;-44
2023/01/26 03:34:50;;;;;;;86.32;25.98;;;1.10;99.90;;;;;;5095351;28;20079;-47
2023/01/26 03:37:21;;;;;;;99.00;28.10;;;1.10;99.90;;;;;;5092574;28;20071;-46
2023/01/26 03:56:26;;;;;;;103.82;26.90;;;1.10;99.90;;;;;;5093786;28;20108;-44
2023/01/26 03:58:54;;;;;;;91.07;27.13;;;1.20;99.90;;;;;;5080244;28;20052;-48
2023/01/26 04:01:26;;;;;;;88.07;27.42;;;0.90;99.90;;;;;;5076331;28;20058;-44
2023/01/26 04:09:26;;;;;;;83.55;26.40;;;1.00;99.90;;;;;;5094605;28;20152;-45
2023/01/26 04:11:52;;;;;;;94.05;28.08;;;1.20;99.90;;;;;;5093956;28;20486;-45
2023/01/26 04:22:42;;;;;;;89.43;26.17;;;1.20;99.90;;;;;;5079625;28;20968;-47
2023/01/26 04:25:09;;;;;;;91.90;28.42;;;1.10;99.90;;;;;;5094790;28;20150;-45
2023/01/26 04:27:35;;;;;;;98.13;27.38;;;1.30;99.90;;;;;;5093880;28;20543;-47
2023/01/26 04:30:02;;;;;;;93.78;27.50;;;1.20;99.90;;;;;;5093791;28;20458;-46
2023/01/26 04:32:28;;;;;;;113.25;28.52;;;1.40;99.90;;;;;;5093432;28;20039;-47
2023/01/26 04:34:54;;;;;;;92.68;26.27;;;1.40;99.90;;;;;;5075832;28;20043;-49
2023/01/26 04:37:20;;;;;;;93.60;27.13;;;1.20;99.90;;;;;;5092861;28;20048;-45
2023/01/26 04:39:45;;;;;;;84.65;27.17;;;1.20;99.90;;;;;;5094099;28;20101;-44
2023/01/26 04:42:11;;;;;;;83.30;27.05;;;1.30;99.90;;;;;;5075091;28;20055;-45
2023/01/26 04:44:37;;;;;;;99.07;27.38;;;1.20;99.90;;;;;;5094518;28;20092;-47
2023/01/26 04:47:02;;;;;;;80.45;26.25;;;1.20;99.90;;;;;;5092669;28;20047;-49
2023/01/26 04:49:28;;;;;;;99.03;26.63;;;1.40;99.90;;;;;;5075056;28;20419;-48
2023/01/26 04:51:54;;;;;;;69.57;25.23;;;1.30;99.90;;;;;;5092314;28;20058;-45
2023/01/26 04:54:19;;;;;;;82.93;26.45;;;1.30;99.90;;;;;;5075126;28;20495;-46
2023/01/26 04:56:45;;;;;;;88.93;26.48;;;1.30;99.90;;;;;;5074958;28;20107;-48
2023/01/26 04:59:11;;;;;;;96.65;28.15;;;1.40;99.90;;;;;;5096027;28;20623;-47
2023/01/26 05:01:37;;;;;;;61.72;24.25;;;1.30;99.90;;;;;;5081250;28;20182;-45
2023/01/26 05:04:03;;;;;;;79.82;27.00;;;1.30;99.90;;;;;;5100126;28;20047;-48
2023/01/26 05:06:30;;;;;;;97.93;29.10;;;1.50;99.90;;;;;;5099848;28;20051;-48
2023/01/26 05:08:56;;;;;;;84.65;26.83;;;1.40;99.90;;;;;;5082366;28;20497;-47
2023/01/26 05:11:21;;;;;;;91.40;26.40;;;1.30;99.90;;;;;;5099862;28;20468;-49
2023/01/26 05:13:47;;;;;;;96.88;26.48;;;1.40;99.90;;;;;;5100095;28;20050;-45
2023/01/26 05:16:13;;;;;;;61.63;23.35;;;1.40;99.90;;;;;;5099432;28;20471;-47
2023/01/26 05:18:43;;;;;;;67.05;24.65;;;1.50;99.90;;;;;;5100392;28;20051;-49
2023/01/26 05:21:09;;;;;;;81.72;25.95;;;1.40;99.90;;;;;;5098458;28;20134;-44
2023/01/26 05:23:36;;;;;;;93.75;30.15;;;1.40;99.90;;;;;;5099966;28;20432;-47
2023/01/26 05:26:02;;;;;;;105.10;30.98;;;1.50;99.90;;;;;;5099833;28;20526;-47
2023/01/26 05:28:27;;;;;;;98.10;26.83;;;1.40;99.90;;;;;;5100838;28;20051;-46
2023/01/26 05:30:53;;;;;;;95.90;26.58;;;1.50;99.90;;;;;;5099683;28;20417;-48
2023/01/26 05:33:20;;;;;;;74.43;27.38;;;1.40;99.90;;;;;;5099559;28;20070;-46
2023/01/26 05:35:51;;;;;;;93.47;27.40;;;1.30;99.90;;;;;;5099822;28;20043;-47
2023/01/26 05:38:17;;;;;;;101.88;27.52;;;1.50;99.90;;;;;;5099906;28;20093;-47
2023/01/26 05:40:43;;;;;;;90.22;25.65;;;1.40;99.90;;;;;;5100540;28;20100;-46
2023/01/26 05:43:09;;;;;;;93.70;27.08;;;1.20;99.90;;;;;;5080278;28;20366;-45
2023/01/26 05:45:35;;;;;;;131.45;29.45;;;1.30;99.90;;;;;;5081206;28;20344;-44
2023/01/26 05:48:01;;;;;;;96.82;27.13;;;1.20;99.90;;;;;;5100615;28;20130;-45
2023/01/26 05:50:27;;;;;;;87.80;28.13;;;1.20;99.90;;;;;;5098199;28;20039;-46
2023/01/26 05:52:53;;;;;;;96.72;27.15;;;1.30;99.90;;;;;;5081001;28;20134;-44
2023/01/26 05:55:18;;;;;;;169.48;29.17;;;1.30;99.90;;;;;;5081060;28;20054;-45
2023/01/26 05:57:44;;;;;;;103.93;25.73;;;1.20;99.90;;;;;;5099945;28;20046;-45
2023/01/26 06:00:12;;;;;;;85.10;26.30;;;1.30;99.90;;;;;;5099278;28;20039;-46
2023/01/26 06:02:37;;;;;;;136.30;28.05;;;1.20;99.90;;;;;;5099430;28;20043;-48
2023/01/26 06:05:04;;;;;;;84.78;27.48;;;1.20;99.90;;;;;;5099478;28;20058;-49
2023/01/26 06:07:30;;;;;;;90.25;25.83;;;1.10;99.90;;;;;;5100445;28;20596;-45
2023/01/26 06:09:56;;;;;;;167.43;29.52;;;1.00;99.90;;;;;;5100077;28;20517;-45
2023/01/26 06:12:22;;;;;;;181.23;30.27;;;1.00;99.90;;;;;;5095487;28;20162;-46
2023/01/26 06:14:48;;;;;;;152.55;28.38;;;1.00;99.90;;;;;;5096412;28;20413;-45
2023/01/26 06:17:16;;;;;;;123.68;26.92;;;0.90;99.90;;;;;;5095272;28;20052;-45
2023/01/26 06:19:41;;;;;;;137.13;26.67;;;0.80;99.90;;;;;;5064264;28;20654;-46
2023/01/26 06:22:12;;;;;;;143.02;28.48;;;1.00;99.90;;;;;;5078191;28;20847;-47
2023/01/26 06:24:38;;;;;;;165.38;30.33;;;1.00;99.90;;;;;;5096978;28;20105;-49
2023/01/26 06:27:07;;;;;;;189.90;30.45;;;0.80;99.90;;;;;;5096578;28;20044;-46
2023/01/26 06:29:33;;;;;;;170.25;30.33;;;0.80;99.90;;;;;;5077913;28;20051;-44
2023/01/26 06:31:59;;;;;;;99.90;24.98;;;0.70;99.90;;;;;;5077529;28;20047;-47
2023/01/26 06:34:25;;;;;;;69.50;23.00;;;1.00;99.90;;;;;;5096081;28;20051;-45
2023/01/26 06:36:50;;;;;;;60.97;21.67;;;0.80;99.90;;;;;;5096490;28;20044;-48
2023/01/26 06:39:16;;;;;;;64.22;22.40;;;1.10;99.90;;;;;;5096641;28;20257;-45
2023/01/26 06:41:45;;;;;;;56.90;21.20;;;1.00;99.90;;;;;;5095041;28;20159;-45
2023/01/26 06:44:11;;;;;;;58.88;20.90;;;1.20;99.90;;;;;;5077421;28;20457;-45
2023/01/26 06:46:38;;;;;;;72.20;22.52;;;1.10;99.90;;;;;;5095210;28;20050;-45
2023/01/26 06:49:04;;;;;;;58.22;20.73;;;1.10;99.90;;;;;;5060930;28;20052;-45
2023/01/26 06:51:55;;;;;;;62.05;19.63;;;1.40;99.90;;;;;;5096084;28;20044;-45
2023/01/26 06:54:20;;;;;;;60.35;20.50;;;1.20;99.90;;;;;;5085909;28;20048;-47
2023/01/26 06:56:46;;;;;;;58.70;20.00;;;1.50;99.90;;;;;;5095013;28;20461;-45
2023/01/26 06:59:13;;;;;;;53.83;18.23;;;1.30;99.90;;;;;;5095592;28;20047;-45
2023/01/26 07:01:42;;;;;;;59.53;18.85;;;1.30;99.90;;;;;;5095264;28;20158;-45
2023/01/26 07:04:07;;;;;;;59.50;17.20;;;1.60;99.90;;;;;;5095517;28;20321;-45
2023/01/26 07:06:33;;;;;;;75.68;18.58;;;1.50;99.90;;;;;;5095295;28;20055;-45
2023/01/26 07:08:58;;;;;;;61.03;14.75;;;1.70;99.90;;;;;;5096152;28;20051;-47
2023/01/26 07:11:24;;;;;;;58.83;15.77;;;1.50;99.90;;;;;;5094984;28;20073;-45
2023/01/26 07:13:51;;;;;;;58.08;15.52;;;1.60;99.90;;;;;;5096303;28;20055;-44
2023/01/26 07:16:17;;;;;;;47.88;13.90;;;1.80;99.90;;;;;;5076683;28;20436;-46
2023/01/26 07:18:43;;;;;;;57.22;14.50;;;1.80;99.90;;;;;;5077123;28;20051;-45
2023/01/26 07:21:21;;;;;;;60.63;14.63;;;1.60;99.90;;;;;;5095379;28;20054;-46
2023/01/26 07:23:49;;;;;;;53.42;13.38;;;1.90;99.90;;;;;;5095667;28;20085;-49
2023/01/26 07:26:15;;;;;;;65.30;13.85;;;1.90;99.90;;;;;;5081427;28;20039;-46
2023/01/26 07:28:41;;;;;;;46.58;12.82;;;1.80;99.90;;;;;;5096585;28;20169;-45
2023/01/26 07:31:09;;;;;;;54.53;11.02;;;1.80;99.90;;;;;;5095691;28;20497;-46
2023/01/26 07:33:34;;;;;;;51.88;10.40;;;2.10;99.90;;;;;;5094311;28;20113;-45
2023/01/26 07:36:01;;;;;;;46.03;8.93;;;1.90;99.90;;;;;;5075628;28;20416;-46
2023/01/26 07:38:27;;;;;;;50.65;8.88;;;2.10;99.90;;;;;;5094383;28;20047;-47
2023/01/26 07:40:53;;;;;;;46.28;9.85;;;1.80;99.90;;;;;;5075487;28;20113;-45
2023/01/26 07:43:19;;;;;;;41.10;8.65;;;1.80;99.90;;;;;;5075231;28;20122;-45
2023/01/26 07:45:46;;;;;;;48.28;8.60;;;2.10;99.90;;;;;;5093875;28;20039;-45
2023/01/26 07:48:11;;;;;;;46.72;7.95;;;2.00;99.90;;;;;;5094171;28;20043;-50
2023/01/26 07:50:37;;;;;;;39.55;7.85;;;1.80;99.90;;;;;;5093648;28;20822;-47
2023/01/26 07:53:03;;;;;;;52.53;8.23;;;2.10;99.90;;;;;;5092822;28;20217;-45
2023/01/26 07:55:28;;;;;;;40.47;6.63;;;1.80;99.90;;;;;;5093027;28;20048;-48
2023/01/26 07:57:54;;;;;;;46.08;7.45;;;2.00;99.90;;;;;;5092524;28;20035;-46
2023/01/26 08:00:20;;;;;;;52.13;7.50;;;2.00;99.90;;;;;;5094864;28;20497;-45
2023/01/26 08:02:50;;;;;;;48.88;7.78;;;2.00;99.90;;;;;;5074791;28;20047;-45
2023/01/26 08:05:15;;;;;;;94.70;44.83;;;1.70;99.90;;;;;;5092614;28;20051;-47
2023/01/26 08:07:41;;;;;;;78.35;34.40;;;1.90;99.90;;;;;;5093001;28;20069;-46
2023/01/26 08:10:09;;;;;;;55.53;17.70;;;1.90;99.90;;;;;;5074438;28;20082;-48
2023/01/26 08:12:35;;;;;;;49.63;8.85;;;1.60;99.90;;;;;;5077093;28;20079;-45
2023/01/26 08:15:04;;;;;;;38.75;6.15;;;1.70;99.90;;;;;;5080544;28;20313;-45
2023/01/26 08:17:32;;;;;;;39.08;6.88;;;1.60;99.90;;;;;;5058802;28;20044;-48
2023/01/26 08:19:58;;;;;;;36.30;5.45;;;1.50;99.90;;;;;;5074716;28;20139;-48
2023/01/26 08:22:24;;;;;;;36.50;5.05;;;1.90;99.90;;;;;;5076407;28;20048;-46
2023/01/26 08:24:49;;;;;;;46.65;6.55;;;2.00;99.90;;;;;;5057599;28;20673;-46
2023/01/26 08:27:16;;;;;;;37.17;5.80;;;1.80;99.90;;;;;;5077299;28;20047;-44
2023/01/26 08:29:42;;;;;;;44.05;6.00;;;2.00;99.90;;;;;;5074432;28;20466;-46
2023/01/26 08:32:08;;;;;;;45.88;6.70;;;2.20;99.90;;;;;;5092649;28;20212;-46
2023/01/26 08:34:33;;;;;;;36.28;6.03;;;2.20;99.90;;;;;;5092338;28;20051;-46
2023/01/26 08:36:59;;;;;;;41.42;5.45;;;2.00;99.90;;;;;;5074558;28;20108;-46
2023/01/26 08:39:25;;;;;;;35.72;6.38;;;1.90;99.90;;;;;;5093537;28;20051;-46
2023/01/26 08:41:50;;;;;;;42.22;6.38;;;2.30;99.90;;;;;;5074784;28;20059;-48
2023/01/26 08:44:16;;;;;;;41.22;5.90;;;2.00;99.90;;;;;;5093972;28;20046;-47
2023/01/26 08:46:45;;;;;;;46.05;8.30;;;2.10;99.90;;;;;;5074326;28;20056;-47
2023/01/26 08:49:11;;;;;;;36.20;6.28;;;2.40;99.90;;;;;;5093550;28;20051;-47
2023/01/26 08:51:36;;;;;;;46.08;5.90;;;2.40;99.90;;;;;;5091831;28;20047;-45
2023/01/26 08:54:07;;;;;;;50.05;7.00;;;2.50;99.90;;;;;;5074058;28;20062;-49
2023/01/26 08:56:33;;;;;;;53.00;6.55;;;2.60;99.90;;;;;;5073932;28;20051;-45
2023/01/26 08:58:58;;;;;;;43.05;6.28;;;2.60;99.90;;;;;;5093784;28;20043;-45
2023/01/26 09:01:24;;;;;;;35.65;6.32;;;2.80;99.90;;;;;;5091756;28;20184;-45
2023/01/26 09:03:51;;;;;;;43.70;6.53;;;3.00;99.90;;;;;;5093338;28;20548;-46
2023/01/26 09:06:20;;;;;;;39.17;6.68;;;2.80;99.90;;;;;;5091973;28;20047;-47
2023/01/26 09:08:46;;;;;;;42.72;7.00;;;3.00;99.90;;;;;;5093314;28;20043;-47
2023/01/26 09:11:12;;;;;;;44.22;5.88;;;3.50;99.90;;;;;;5090972;28;20051;-45
2023/01/26 09:13:38;;;;;;;36.47;6.65;;;3.40;99.90;;;;;;5075197;28;20052;-46
2023/01/26 09:16:14;;;;;;;49.90;7.25;;;3.80;99.90;;;;;;5092428;28;20135;-49
2023/01/26 09:18:39;;;;;;;45.33;5.90;;;3.70;99.90;;;;;;5084179;28;20536;-45
2023/01/26 09:21:07;;;;;;;43.85;5.65;;;3.80;99.90;;;;;;5092440;28;20048;-47
2023/01/26 09:23:33;;;;;;;39.63;6.15;;;4.10;99.90;;;;;;5075036;28;20517;-47
2023/01/26 09:25:59;;;;;;;37.75;5.78;;;4.10;99.90;;;;;;5092302;28;20371;-46
2023/01/26 09:28:25;;;;;;;45.20;6.43;;;4.10;99.90;;;;;;5092359;28;20055;-46
2023/01/26 09:30:51;;;;;;;43.92;7.30;;;4.50;99.90;;;;;;5072742;28;20481;-48
2023/01/26 09:33:16;;;;;;;37.08;6.00;;;4.50;99.90;;;;;;5092422;28;20054;-47
2023/01/26 09:35:42;;;;;;;32.15;5.10;;;4.50;99.90;;;;;;5073784;28;20499;-48
2023/01/26 09:38:08;;;;;;;37.20;5.40;;;4.50;99.90;;;;;;5073812;28;20072;-48
2023/01/26 09:40:39;;;;;;;35.28;5.22;;;4.60;99.90;;;;;;5091909;28;20047;-45
2023/01/26 09:43:08;;;;;;;34.47;4.57;;;4.70;99.90;;;;;;5091523;28;20157;-48
2023/01/26 09:45:54;;;;;;;32.83;4.90;;;4.90;99.90;;;;;;5092486;28;20043;-45
2023/01/26 09:48:32;;;;;;;35.20;5.60;;;4.90;99.90;;;;;;5096207;28;20502;-49
2023/01/26 09:51:18;;;;;;;33.85;5.32;;;4.80;99.90;;;;;;5082961;28;20051;-45
2023/01/26 09:53:59;;;;;;;32.92;5.72;;;4.90;99.90;;;;;;5078634;28;20063;-47
2023/01/26 09:56:28;;;;;;;31.02;5.55;;;5.00;99.90;;;;;;5075295;28;20044;-45
2023/01/26 09:59:06;;;;;;;41.50;5.80;;;5.20;99.90;;;;;;5083633;28;20139;-46
2023/01/26 10:01:52;;;;;;;32.95;5.05;;;5.20;99.90;;;;;;5093934;28;20627;-48
2023/01/26 10:04:41;;;;;;;36.28;6.25;;;5.50;99.90;;;;;;5094708;28;20074;-45
2023/01/26 10:07:13;;;;;;;39.22;5.53;;;5.50;99.90;;;;;;5096763;28;20047;-45
2023/01/26 10:09:41;;;;;;;30.23;5.05;;;5.60;99.90;;;;;;5097876;28;20470;-49
2023/01/26 10:12:22;;;;;;;28.73;6.47;;;5.80;99.90;;;;;;5078136;28;20047;-49
2023/01/26 10:14:59;;;;;;;35.35;5.60;;;5.80;99.90;;;;;;5096003;28;20039;-47
2023/01/26 10:17:35;;;;;;;37.15;6.78;;;6.00;99.90;;;;;;5095625;28;20122;-45
2023/01/26 10:20:19;;;;;;;39.85;6.53;;;6.00;99.90;;;;;;5096380;28;20055;-45
2023/01/26 10:22:50;;;;;;;38.40;5.65;;;6.00;99.90;;;;;;5095285;28;20083;-49
2023/01/26 10:25:21;;;;;;;35.47;6.25;;;6.10;99.90;;;;;;5077490;28;20055;-46
2023/01/26 10:27:47;;;;;;;32.33;6.47;;;6.30;99.90;;;;;;5096321;28;20067;-45
2023/01/26 10:30:18;;;;;;;32.63;4.80;;;6.20;99.90;;;;;;5078749;28;20089;-46
2023/01/26 10:32:46;;;;;;;30.77;5.15;;;6.20;99.90;;;;;;5095703;28;20125;-49
2023/01/26 10:35:17;;;;;;;30.20;4.75;;;6.20;99.90;;;;;;5096224;28;20055;-46
2023/01/26 10:37:46;;;;;;;31.58;5.05;;;6.30;99.90;;;;;;5096731;28;20497;-46
2023/01/26 10:40:12;;;;;;;27.23;5.32;;;6.50;99.90;;;;;;5078274;28;20050;-45
2023/01/26 10:42:39;;;;;;;31.08;5.80;;;6.40;99.90;;;;;;5096230;28;20051;-46
2023/01/26 10:45:27;;;;;;;23.52;4.47;;;6.60;99.90;;;;;;5077062;28;20207;-47
2023/01/26 10:48:25;;;;;;;27.80;5.68;;;6.60;99.90;;;;;;5095909;28;20055;-46
2023/01/26 10:50:52;;;;;;;28.92;4.55;;;6.70;99.90;;;;;;5096233;28;20417;-47
2023/01/26 10:53:23;;;;;;;35.00;6.53;;;6.60;99.90;;;;;;5095340;28;20509;-49
2023/01/26 10:56:11;;;;;;;26.85;6.32;;;6.50;99.90;;;;;;5095775;28;20470;-47
2023/01/26 10:58:40;;;;;;;27.00;4.43;;;6.50;99.90;;;;;;5075155;28;20422;-48
2023/01/26 11:01:11;;;;;;;30.35;5.28;;;6.50;99.90;;;;;;5094603;28;20047;-49
2023/01/26 11:03:40;;;;;;;19.90;3.85;;;6.60;99.90;;;;;;5096405;28;20089;-45
2023/01/26 11:06:14;;;;;;;27.42;4.47;;;6.70;99.90;;;;;;5094330;28;20048;-45
2023/01/26 11:08:41;;;;;;;23.63;4.25;;;6.80;99.90;;;;;;5079005;28;20126;-46
2023/01/26 11:11:24;;;;;;;29.83;5.35;;;7.00;99.90;;;;;;5092175;28;20421;-46
2023/01/26 11:14:11;;;;;;;25.20;4.18;;;7.10;99.90;;;;;;5094909;28;20043;-46
2023/01/26 11:16:37;;;;;;;22.63;4.03;;;7.20;99.90;;;;;;5093494;28;20042;-46
2023/01/26 11:19:15;;;;;;;20.02;4.15;;;7.30;99.90;;;;;;5094775;28;20075;-48
2023/01/26 11:21:57;;;;;;;28.83;4.25;;;7.30;99.90;;;;;;5094266;28;20052;-46
2023/01/26 11:24:32;;;;;;;36.63;4.95;;;7.40;99.90;;;;;;5094780;28;20158;-47
2023/01/26 11:27:17;;;;;;;17.90;3.88;;;7.40;99.90;;;;;;5095496;28;20044;-48
2023/01/26 11:30:10;;;;;;;19.55;3.38;;;7.40;99.90;;;;;;5077851;28;20075;-48
2023/01/26 11:32:58;;;;;;;20.15;3.58;;;7.30;99.90;;;;;;5094351;28;20505;-45
2023/01/26 11:35:36;;;;;;;21.08;4.32;;;7.20;99.90;;;;;;5093946;28;20047;-48
2023/01/26 11:38:21;;;;;;;17.23;3.80;;;7.00;99.90;;;;;;5094589;28;20048;-47
2023/01/26 11:41:07;;;;;;;17.60;3.33;;;7.00;99.90;;;;;;5095019;28;20082;-48
2023/01/26 11:43:50;;;;;;;14.13;2.90;;;6.70;99.90;;;;;;5094334;28;20414;-48
2023/01/26 11:46:36;;;;;;;18.40;3.53;;;6.60;99.90;;;;;;5094457;28;20558;-46
2023/01/26 11:49:06;;;;;;;11.70;2.10;;;6.60;99.90;;;;;;5094491;28;20054;-48
2023/01/26 11:52:03;;;;;;;13.45;2.38;;;6.70;99.90;;;;;;5091329;28;20086;-49
2023/01/26 11:55:15;;;;;;;18.85;3.38;;;6.60;99.90;;;;;;5084006;28;20096;-47
2023/01/26 11:57:47;;;;;;;17.60;2.58;;;6.60;99.90;;;;;;5085303;28;20121;-47
2023/01/26 12:00:21;;;;;;;15.50;2.45;;;6.60;99.90;;;;;;5076637;28;20047;-47
2023/01/26 12:03:00;;;;;;;20.40;4.32;;;6.80;99.90;;;;;;5094815;28;20124;-47
2023/01/26 12:05:32;;;;;;;19.20;3.20;;;7.00;99.90;;;;;;5093581;28;20043;-47
2023/01/26 12:08:16;;;;;;;19.27;2.92;;;7.00;99.90;;;;;;5094408;28;20051;-48
2023/01/26 12:10:55;;;;;;;20.55;2.83;;;7.10;99.90;;;;;;5094268;28;20123;-45
2023/01/26 12:13:20;;;;;;;17.08;4.18;;;7.20;99.90;;;;;;5094278;28;20105;-51
2023/01/26 12:15:52;;;;;;;24.10;3.97;;;7.20;99.90;;;;;;5093650;28;20200;-48
2023/01/26 12:18:26;;;;;;;20.25;3.70;;;7.20;99.90;;;;;;5094427;28;20133;-49
2023/01/26 12:20:59;;;;;;;22.00;4.70;;;7.30;99.90;;;;;;5075326;28;20473;-47
2023/01/26 12:23:42;;;;;;;25.42;4.00;;;7.40;99.90;;;;;;5094321;28;20046;-45
2023/01/26 12:26:15;;;;;;;17.88;4.22;;;7.50;99.90;;;;;;5093352;28;20095;-47
2023/01/26 12:28:59;;;;;;;17.23;3.67;;;7.40;99.90;;;;;;5093620;28;20484;-49
2023/01/26 12:31:37;;;;;;;25.02;4.18;;;7.50;99.90;;;;;;5093181;28;20047;-49
2023/01/26 12:34:10;;;;;;;16.25;3.22;;;7.40;99.90;;;;;;5074761;28;20967;-48
2023/01/26 12:36:56;;;;;;;20.80;3.50;;;7.50;99.90;;;;;;5093097;28;20062;-50
2023/01/26 12:39:40;;;;;;;25.30;4.65;;;7.40;99.90;;;;;;5010052;28;20106;-49
2023/01/26 12:42:16;;;;;;;25.83;3.85;;;7.40;99.90;;;;;;5009543;28;20067;-47
2023/01/26 12:44:55;;;;;;;25.15;3.33;;;7.50;99.90;;;;;;5010545;28;20069;-46
2023/01/26 12:47:36;;;;;;;13.75;2.58;;;7.50;99.90;;;;;;5010138;28;20046;-48
2023/01/26 12:50:10;;;;;;;14.93;3.08;;;7.50;99.90;;;;;;5009735;28;20084;-49
2023/01/26 12:52:53;;;;;;;21.20;3.47;;;7.60;99.90;;;;;;4990487;28;20100;-46
2023/01/26 12:55:57;;;;;;;16.90;3.67;;;7.60;99.90;;;;;;5009538;28;20391;-49
2023/01/26 12:58:31;;;;;;;14.10;2.50;;;7.70;99.90;;;;;;5010150;28;20221;-46
2023/01/26 13:01:15;;;;;;;15.75;2.95;;;7.60;99.90;;;;;;5009919;28;20136;-51
2023/01/26 13:03:50;;;;;;;12.43;2.53;;;7.70;99.90;;;;;;4997071;28;20353;-49
2023/01/26 13:06:15;;;;;;;15.25;3.08;;;7.70;99.90;;;;;;4993374;28;20500;-51
2023/01/26 13:09:16;;;;;;;15.15;3.40;;;7.70;99.90;;;;;;5010674;28;20087;-46
2023/01/26 13:11:49;;;;;;;15.73;2.22;;;7.60;99.90;;;;;;5009386;28;20084;-48
2023/01/26 13:14:33;;;;;;;16.33;3.13;;;7.60;99.90;;;;;;4994071;28;20408;-51
2023/01/26 13:17:14;;;;;;;16.02;2.83;;;7.50;99.90;;;;;;5067396;28;20502;-48
2023/01/26 13:19:43;;;;;;;17.88;3.58;;;7.50;99.90;;;;;;5094353;28;20047;-47
2023/01/26 13:22:18;;;;;;;16.42;4.32;;;7.40;99.90;;;;;;5097457;28;20057;-49
2023/01/26 13:25:16;;;;;;;20.88;3.30;;;7.30;99.90;;;;;;5097631;28;20062;-49
2023/01/26 13:27:54;;;;;;;14.35;2.42;;;7.30;99.90;;;;;;5080097;28;20409;-45
2023/01/26 13:30:25;;;;;;;21.00;4.28;;;7.40;99.90;;;;;;5079760;28;20283;-46
2023/01/26 13:33:16;;;;;;;10.50;2.40;;;7.30;99.90;;;;;;5097611;28;20051;-48
2023/01/26 13:35:44;;;;;;;14.65;3.03;;;7.30;99.90;;;;;;5087567;28;20052;-46
2023/01/26 13:38:33;;;;;;;14.15;2.65;;;7.30;99.90;;;;;;5079295;28;20051;-48
2023/01/26 13:41:00;;;;;;;17.23;3.17;;;7.20;99.90;;;;;;5097993;28;20051;-47
2023/01/26 13:43:42;;;;;;;13.88;3.42;;;7.20;99.90;;;;;;5096459;28;20060;-48